TAF and METAR

Decoding for American and Canadian METARs and TAFs is not fully implemented.

Could not understand the following METAR

PALU 030255Z AUTO 31006KT 10SM CLR 04/02 A2969 RMK AO2 LTG DSNT S SLP052 T00370019 54001
No TAF available for Cape Lisburne LRRS Airport
Cape Lisburne LRRS Airport in United States of America at 3m

Latest 5 airports